Time;durP1;ratioP1;P1;durP2;ratioP2;P2;SDS_P1;SDS_P2;PMS_P1;PMS_P2;Temp;Humidity;BMP_temperature;BMP_pressure;BME280_temperature;BME280_humidity;BME280_pressure;Samples;Min_cycle;Max_cycle;Signal;HPM_P1;HPM_P2
2021/08/07 00:02:11;;;;;;;0.52;0.40;;;;;;;;;;5027324;28;20423;-51
2021/08/07 00:04:37;;;;;;;1.15;0.60;;;;;;;;;;5026166;28;20021;-51
2021/08/07 00:07:03;;;;;;;1.02;0.75;;;;;;;;;;5027319;28;20481;-54
2021/08/07 00:09:29;;;;;;;1.10;0.70;;;;;;;;;;5027364;28;20018;-52
2021/08/07 00:11:55;;;;;;;0.60;0.60;;;;;;;;;;5026924;28;20026;-53
2021/08/07 00:14:21;;;;;;;0.98;0.60;;;;;;;;;;5027959;28;20022;-49
2021/08/07 00:16:47;;;;;;;2.00;0.82;;;;;;;;;;5026786;28;20026;-52
2021/08/07 00:19:13;;;;;;;0.93;0.50;;;;;;;;;;5027314;28;20120;-51
2021/08/07 00:21:39;;;;;;;0.65;0.50;;;;;;;;;;5026682;28;20365;-54
2021/08/07 00:24:05;;;;;;;2.42;1.00;;;;;;;;;;5027106;28;20396;-52
2021/08/07 00:26:31;;;;;;;0.40;0.40;;;;;;;;;;5034666;28;20039;-52
2021/08/07 00:28:58;;;;;;;1.00;0.60;;;;;;;;;;5045230;28;20202;-53
2021/08/07 00:31:24;;;;;;;0.73;0.50;;;;;;;;;;5046427;28;20036;-50
2021/08/07 00:33:50;;;;;;;0.80;0.50;;;;;;;;;;5046622;28;20113;-50
2021/08/07 00:36:16;;;;;;;2.25;0.50;;;;;;;;;;5045160;28;20040;-52
2021/08/07 00:38:42;;;;;;;0.80;0.60;;;;;;;;;;5026574;28;20075;-54
2021/08/07 00:41:08;;;;;;;0.60;0.60;;;;;;;;;;5026701;28;20029;-49
2021/08/07 00:43:34;;;;;;;0.70;0.60;;;;;;;;;;5026641;28;20029;-52
2021/08/07 00:46:00;;;;;;;2.33;0.50;;;;;;;;;;5026372;28;20036;-52
2021/08/07 00:48:26;;;;;;;1.45;0.60;;;;;;;;;;5026718;28;20633;-53
2021/08/07 00:50:52;;;;;;;0.43;0.40;;;;;;;;;;5027233;28;20033;-53
2021/08/07 00:53:19;;;;;;;0.50;0.50;;;;;;;;;;5026650;28;20479;-53
2021/08/07 00:55:45;;;;;;;0.40;0.40;;;;;;;;;;5026421;28;20507;-53
2021/08/07 00:58:11;;;;;;;0.57;0.50;;;;;;;;;;5026793;28;20029;-53
2021/08/07 01:00:38;;;;;;;1.20;0.80;;;;;;;;;;5026411;28;20033;-54
2021/08/07 01:03:11;;;;;;;0.90;0.40;;;;;;;;;;5026041;28;20022;-51
2021/08/07 01:05:47;;;;;;;1.47;0.83;;;;;;;;;;5041439;28;20029;-53
2021/08/07 01:08:14;;;;;;;0.55;0.40;;;;;;;;;;5026530;28;20087;-51
2021/08/07 01:10:52;;;;;;;0.60;0.50;;;;;;;;;;5025756;28;20109;-53
2021/08/07 01:13:24;;;;;;;0.75;0.40;;;;;;;;;;5027244;28;20515;-53
2021/08/07 01:15:55;;;;;;;0.43;0.43;;;;;;;;;;5025634;28;20121;-53
2021/08/07 01:18:22;;;;;;;0.60;0.50;;;;;;;;;;5026900;28;20136;-54
2021/08/07 01:20:50;;;;;;;0.52;0.50;;;;;;;;;;5026095;28;20111;-53
2021/08/07 01:23:22;;;;;;;0.73;0.60;;;;;;;;;;5026486;28;20448;-53
2021/08/07 01:26:00;;;;;;;1.00;0.52;;;;;;;;;;5025626;28;20055;-53
2021/08/07 01:28:34;;;;;;;0.52;0.40;;;;;;;;;;5026500;28;20029;-50
2021/08/07 01:31:01;;;;;;;1.17;0.75;;;;;;;;;;5037951;28;20029;-52
2021/08/07 01:33:28;;;;;;;0.60;0.60;;;;;;;;;;5032046;28;20215;-53
2021/08/07 01:35:55;;;;;;;0.73;0.50;;;;;;;;;;5026595;28;20049;-53
2021/08/07 01:38:21;;;;;;;0.80;0.60;;;;;;;;;;5025470;28;20534;-53
2021/08/07 01:40:48;;;;;;;0.52;0.45;;;;;;;;;;5029285;28;20036;-52
2021/08/07 01:43:14;;;;;;;0.55;0.50;;;;;;;;;;5030283;28;20022;-51
2021/08/07 01:45:40;;;;;;;0.70;0.50;;;;;;;;;;5029594;28;20104;-53
2021/08/07 01:48:10;;;;;;;0.57;0.57;;;;;;;;;;5029821;28;20526;-51
2021/08/07 01:50:39;;;;;;;0.90;0.50;;;;;;;;;;5029397;28;20112;-53
2021/08/07 01:53:16;;;;;;;1.00;0.55;;;;;;;;;;5032394;28;20032;-54
2021/08/07 01:55:45;;;;;;;1.20;0.70;;;;;;;;;;5049241;28;20035;-53
2021/08/07 01:58:12;;;;;;;0.70;0.45;;;;;;;;;;5029385;28;20043;-52
2021/08/07 02:00:40;;;;;;;1.33;0.57;;;;;;;;;;5029128;28;20715;-52
2021/08/07 02:03:08;;;;;;;0.50;0.50;;;;;;;;;;5030433;28;20036;-50
2021/08/07 02:05:34;;;;;;;0.60;0.52;;;;;;;;;;5028027;28;20032;-50
2021/08/07 02:08:02;;;;;;;0.68;0.60;;;;;;;;;;5029782;28;20020;-52
2021/08/07 02:10:28;;;;;;;0.82;0.50;;;;;;;;;;5029368;28;20029;-53
2021/08/07 02:12:55;;;;;;;1.27;0.60;;;;;;;;;;5030054;28;20029;-54
2021/08/07 02:15:22;;;;;;;1.10;0.77;;;;;;;;;;5029675;28;20068;-53
2021/08/07 02:17:49;;;;;;;0.60;0.60;;;;;;;;;;5029381;28;20057;-52
2021/08/07 02:20:16;;;;;;;0.98;0.60;;;;;;;;;;5027732;28;20029;-54
2021/08/07 02:22:44;;;;;;;0.93;0.60;;;;;;;;;;5028830;28;20033;-53
2021/08/07 02:25:11;;;;;;;0.90;0.65;;;;;;;;;;5029420;28;20033;-53
2021/08/07 02:27:37;;;;;;;0.90;0.60;;;;;;;;;;5029258;28;20030;-51
2021/08/07 02:30:04;;;;;;;1.50;0.50;;;;;;;;;;5029347;28;20029;-53
2021/08/07 02:32:30;;;;;;;0.50;0.50;;;;;;;;;;5029162;28;20060;-54
2021/08/07 02:34:56;;;;;;;0.82;0.68;;;;;;;;;;5029165;28;20025;-53
2021/08/07 02:37:23;;;;;;;1.02;0.70;;;;;;;;;;5029668;28;20017;-54
2021/08/07 02:39:50;;;;;;;0.93;0.57;;;;;;;;;;5028987;28;20060;-53
2021/08/07 02:42:16;;;;;;;1.92;0.60;;;;;;;;;;5028709;28;20033;-52
2021/08/07 02:44:42;;;;;;;1.48;0.40;;;;;;;;;;5028366;28;20029;-53
2021/08/07 02:47:09;;;;;;;0.85;0.50;;;;;;;;;;5028826;28;20025;-53
2021/08/07 02:49:35;;;;;;;0.80;0.57;;;;;;;;;;5029305;28;20029;-50
2021/08/07 02:52:01;;;;;;;0.50;0.50;;;;;;;;;;5027437;28;20034;-54
2021/08/07 02:54:27;;;;;;;1.02;0.60;;;;;;;;;;5029032;28;20040;-52
2021/08/07 02:56:53;;;;;;;1.25;0.70;;;;;;;;;;5029176;28;20030;-51
2021/08/07 02:59:20;;;;;;;1.15;0.70;;;;;;;;;;5028710;28;20025;-54
2021/08/07 03:01:46;;;;;;;0.63;0.50;;;;;;;;;;5028302;28;20040;-53
2021/08/07 03:04:13;;;;;;;0.75;0.50;;;;;;;;;;5028634;28;20028;-53
2021/08/07 03:06:39;;;;;;;0.57;0.50;;;;;;;;;;5028150;28;20370;-53
2021/08/07 03:09:05;;;;;;;0.82;0.70;;;;;;;;;;5028645;28;20072;-52
2021/08/07 03:11:31;;;;;;;1.48;0.80;;;;;;;;;;5028062;28;20025;-53
2021/08/07 03:13:57;;;;;;;1.00;0.70;;;;;;;;;;5028543;28;20095;-54
2021/08/07 03:16:23;;;;;;;1.45;0.60;;;;;;;;;;5028404;28;20552;-53
2021/08/07 03:18:49;;;;;;;1.10;0.80;;;;;;;;;;5026733;28;20484;-54
2021/08/07 03:21:15;;;;;;;0.65;0.60;;;;;;;;;;5028279;28;20029;-53
2021/08/07 03:23:41;;;;;;;0.75;0.60;;;;;;;;;;5026569;28;20377;-53
2021/08/07 03:26:09;;;;;;;0.50;0.50;;;;;;;;;;5028140;28;20067;-53
2021/08/07 03:28:35;;;;;;;0.65;0.50;;;;;;;;;;5027859;28;20492;-53
2021/08/07 03:31:01;;;;;;;0.60;0.60;;;;;;;;;;5027486;28;20519;-53
2021/08/07 03:33:27;;;;;;;0.50;0.50;;;;;;;;;;5027983;28;20057;-53
2021/08/07 03:35:53;;;;;;;0.40;0.40;;;;;;;;;;5028134;28;20108;-53
2021/08/07 03:38:19;;;;;;;0.63;0.40;;;;;;;;;;5027717;28;20729;-51
2021/08/07 03:40:45;;;;;;;0.50;0.50;;;;;;;;;;5027459;28;20025;-50
2021/08/07 03:43:12;;;;;;;0.70;0.50;;;;;;;;;;5027473;28;20033;-49
2021/08/07 03:45:38;;;;;;;1.25;0.57;;;;;;;;;;5027004;28;20069;-50
2021/08/07 03:48:04;;;;;;;0.55;0.50;;;;;;;;;;5027795;28;20388;-51
2021/08/07 03:50:30;;;;;;;0.77;0.60;;;;;;;;;;5027539;28;20560;-53
2021/08/07 03:52:56;;;;;;;2.65;0.57;;;;;;;;;;5027788;28;20033;-54
2021/08/07 03:55:22;;;;;;;0.40;0.40;;;;;;;;;;5027668;28;20029;-50
2021/08/07 03:57:51;;;;;;;0.52;0.50;;;;;;;;;;5027452;28;20520;-53
2021/08/07 04:00:18;;;;;;;1.23;0.60;;;;;;;;;;5027270;28;20022;-54
2021/08/07 04:02:44;;;;;;;0.85;0.70;;;;;;;;;;5026982;28;20119;-49
2021/08/07 04:05:10;;;;;;;1.33;0.57;;;;;;;;;;5027439;28;20025;-51
2021/08/07 04:07:36;;;;;;;0.77;0.52;;;;;;;;;;5027070;28;20033;-51
2021/08/07 04:10:03;;;;;;;0.50;0.47;;;;;;;;;;5027486;28;20471;-52
2021/08/07 04:12:29;;;;;;;1.85;0.50;;;;;;;;;;5027576;28;20030;-51
2021/08/07 04:14:55;;;;;;;1.85;0.50;;;;;;;;;;5027314;28;20365;-53
2021/08/07 04:17:21;;;;;;;0.88;0.57;;;;;;;;;;5027629;28;20029;-52
2021/08/07 04:19:47;;;;;;;0.55;0.50;;;;;;;;;;5027328;28;20526;-52
2021/08/07 04:22:13;;;;;;;1.27;0.50;;;;;;;;;;5031966;28;20495;-51
2021/08/07 04:24:39;;;;;;;0.80;0.60;;;;;;;;;;5046925;28;20556;-52
2021/08/07 04:27:05;;;;;;;0.82;0.50;;;;;;;;;;5045495;28;20470;-52
2021/08/07 04:29:31;;;;;;;0.68;0.50;;;;;;;;;;5046564;28;20734;-53
2021/08/07 04:31:57;;;;;;;0.57;0.55;;;;;;;;;;5046892;28;20550;-53
2021/08/07 04:34:23;;;;;;;0.52;0.50;;;;;;;;;;5031432;28;20095;-53
2021/08/07 04:36:49;;;;;;;0.60;0.60;;;;;;;;;;5026491;28;20392;-51
2021/08/07 04:39:17;;;;;;;0.40;0.40;;;;;;;;;;5026931;28;20639;-53
2021/08/07 04:41:43;;;;;;;0.65;0.50;;;;;;;;;;5026816;28;20029;-53
2021/08/07 04:44:09;;;;;;;1.33;0.77;;;;;;;;;;5039379;28;20052;-50
2021/08/07 04:46:36;;;;;;;1.80;0.50;;;;;;;;;;5046604;28;20079;-53
2021/08/07 04:49:02;;;;;;;0.50;0.50;;;;;;;;;;5039698;28;20056;-53
2021/08/07 04:51:28;;;;;;;0.47;0.47;;;;;;;;;;5025164;28;20442;-52
2021/08/07 04:53:54;;;;;;;0.65;0.50;;;;;;;;;;5026716;28;20033;-52
2021/08/07 04:56:20;;;;;;;2.03;0.77;;;;;;;;;;5026261;28;20120;-54
2021/08/07 04:58:46;;;;;;;0.63;0.50;;;;;;;;;;5026468;28;20052;-53
2021/08/07 05:01:13;;;;;;;0.43;0.43;;;;;;;;;;5026372;28;20033;-53
2021/08/07 05:03:39;;;;;;;0.40;0.40;;;;;;;;;;5026104;28;20567;-52
2021/08/07 05:06:05;;;;;;;0.77;0.55;;;;;;;;;;5026545;28;20500;-53
2021/08/07 05:08:31;;;;;;;0.50;0.50;;;;;;;;;;5026583;28;20029;-53
2021/08/07 05:10:57;;;;;;;0.60;0.50;;;;;;;;;;5026205;28;20048;-54
2021/08/07 05:13:23;;;;;;;1.00;0.57;;;;;;;;;;5027414;28;20072;-53
2021/08/07 05:15:49;;;;;;;0.85;0.70;;;;;;;;;;5029274;28;20033;-53
2021/08/07 05:18:15;;;;;;;1.52;0.73;;;;;;;;;;5030689;28;20025;-53
2021/08/07 05:20:41;;;;;;;1.15;0.60;;;;;;;;;;5030349;28;20499;-53
2021/08/07 05:23:07;;;;;;;1.27;0.60;;;;;;;;;;5030156;28;20025;-54
2021/08/07 05:25:33;;;;;;;1.55;0.63;;;;;;;;;;5030174;28;20507;-53
2021/08/07 05:28:00;;;;;;;0.50;0.50;;;;;;;;;;5030037;28;20021;-53
2021/08/07 05:30:26;;;;;;;1.40;0.50;;;;;;;;;;5030742;28;20033;-53
2021/08/07 05:32:52;;;;;;;0.47;0.47;;;;;;;;;;5029909;28;20033;-51
2021/08/07 05:35:18;;;;;;;0.60;0.50;;;;;;;;;;5030080;28;20695;-51
2021/08/07 05:37:44;;;;;;;1.17;0.55;;;;;;;;;;5029632;28;20037;-52
2021/08/07 05:40:12;;;;;;;0.38;0.38;;;;;;;;;;5029673;28;20120;-50
2021/08/07 05:42:38;;;;;;;0.98;0.70;;;;;;;;;;5029295;28;20021;-53
2021/08/07 05:45:05;;;;;;;0.82;0.50;;;;;;;;;;5029927;28;20025;-51
2021/08/07 05:47:31;;;;;;;1.05;0.40;;;;;;;;;;5029701;28;20022;-54
2021/08/07 05:49:57;;;;;;;0.50;0.50;;;;;;;;;;5030458;28;20396;-53
2021/08/07 05:52:25;;;;;;;0.95;0.52;;;;;;;;;;5030785;28;20033;-50
2021/08/07 05:54:51;;;;;;;0.60;0.60;;;;;;;;;;5029946;28;20042;-51
2021/08/07 05:57:17;;;;;;;0.68;0.50;;;;;;;;;;5029755;28;20033;-51
2021/08/07 05:59:43;;;;;;;1.10;0.50;;;;;;;;;;5029030;28;20029;-53
2021/08/07 06:02:10;;;;;;;0.63;0.50;;;;;;;;;;5048409;28;20025;-52
2021/08/07 06:04:36;;;;;;;0.50;0.50;;;;;;;;;;5048881;28;20459;-53
2021/08/07 06:07:02;;;;;;;0.65;0.50;;;;;;;;;;5046761;28;20021;-52
2021/08/07 06:09:28;;;;;;;1.45;0.30;;;;;;;;;;5029857;28;20032;-51
2021/08/07 06:11:54;;;;;;;0.57;0.57;;;;;;;;;;5030455;28;20930;-53
2021/08/07 06:14:20;;;;;;;0.70;0.68;;;;;;;;;;5040488;28;20480;-52
2021/08/07 06:16:46;;;;;;;0.40;0.40;;;;;;;;;;5040832;28;20052;-52
2021/08/07 06:19:13;;;;;;;0.82;0.70;;;;;;;;;;5034289;28;20048;-54
2021/08/07 06:21:39;;;;;;;0.40;0.40;;;;;;;;;;5029136;28;20034;-50
2021/08/07 06:24:05;;;;;;;1.17;0.60;;;;;;;;;;5029445;28;20056;-49
2021/08/07 06:26:31;;;;;;;0.80;0.70;;;;;;;;;;5028692;28;20030;-52
2021/08/07 06:28:57;;;;;;;2.15;0.60;;;;;;;;;;5039780;28;20029;-52
2021/08/07 06:31:23;;;;;;;0.40;0.40;;;;;;;;;;5043712;28;20029;-52
2021/08/07 06:33:50;;;;;;;0.70;0.50;;;;;;;;;;5052947;28;20507;-52
2021/08/07 06:36:17;;;;;;;1.25;0.50;;;;;;;;;;5050644;28;20033;-51
2021/08/07 06:38:44;;;;;;;0.90;0.50;;;;;;;;;;5037314;28;20108;-53
2021/08/07 06:41:10;;;;;;;1.25;0.68;;;;;;;;;;5034381;28;20018;-55
2021/08/07 06:43:36;;;;;;;0.85;0.70;;;;;;;;;;5034399;28;20543;-55
2021/08/07 06:46:02;;;;;;;0.80;0.60;;;;;;;;;;5045556;28;20504;-54
2021/08/07 06:48:29;;;;;;;0.50;0.50;;;;;;;;;;5047802;28;20055;-55
2021/08/07 06:50:55;;;;;;;0.88;0.75;;;;;;;;;;5033473;28;20029;-53
2021/08/07 06:53:21;;;;;;;0.60;0.60;;;;;;;;;;5029078;28;20033;-54
2021/08/07 06:55:47;;;;;;;0.90;0.65;;;;;;;;;;5039124;28;20064;-56
2021/08/07 06:58:13;;;;;;;0.77;0.60;;;;;;;;;;5036755;28;20167;-55
2021/08/07 07:00:40;;;;;;;2.15;0.55;;;;;;;;;;5030468;28;20104;-54
2021/08/07 07:03:06;;;;;;;0.47;0.40;;;;;;;;;;5047585;28;20098;-54
2021/08/07 07:05:34;;;;;;;0.90;0.65;;;;;;;;;;5041237;28;20187;-55
2021/08/07 07:08:01;;;;;;;0.50;0.40;;;;;;;;;;5033371;28;20109;-55
2021/08/07 07:10:29;;;;;;;0.60;0.60;;;;;;;;;;5026481;28;20394;-54
2021/08/07 07:12:55;;;;;;;0.47;0.40;;;;;;;;;;5044186;28;20408;-52
2021/08/07 07:15:21;;;;;;;1.20;0.60;;;;;;;;;;5028645;28;20523;-52
2021/08/07 07:17:47;;;;;;;1.33;0.70;;;;;;;;;;5030308;28;20029;-52
2021/08/07 07:20:13;;;;;;;1.45;0.93;;;;;;;;;;5035355;28;20759;-53
2021/08/07 07:22:40;;;;;;;1.17;0.82;;;;;;;;;;5046425;28;20029;-53
2021/08/07 07:25:07;;;;;;;1.38;0.90;;;;;;;;;;5032556;28;20029;-52
2021/08/07 07:27:33;;;;;;;1.23;0.98;;;;;;;;;;5027451;28;20048;-52
2021/08/07 07:29:59;;;;;;;2.13;0.90;;;;;;;;;;5028120;28;20061;-51
2021/08/07 07:32:25;;;;;;;2.17;1.10;;;;;;;;;;5029713;28;20088;-52
2021/08/07 07:34:52;;;;;;;1.90;1.20;;;;;;;;;;5029595;28;20035;-51
2021/08/07 07:37:18;;;;;;;3.22;1.10;;;;;;;;;;5027528;28;20087;-51
2021/08/07 07:39:45;;;;;;;2.50;1.20;;;;;;;;;;5036747;28;20056;-52
2021/08/07 07:42:11;;;;;;;1.73;1.08;;;;;;;;;;5029337;28;20403;-51
2021/08/07 07:44:37;;;;;;;2.05;1.23;;;;;;;;;;5030937;28;20025;-52
2021/08/07 07:47:04;;;;;;;2.70;1.20;;;;;;;;;;5037127;28;20379;-53
2021/08/07 07:49:30;;;;;;;2.10;1.10;;;;;;;;;;5048031;28;20028;-53
2021/08/07 07:51:56;;;;;;;1.27;0.93;;;;;;;;;;5047977;28;20094;-52
2021/08/07 07:54:22;;;;;;;1.10;0.90;;;;;;;;;;5048950;28;20021;-52
2021/08/07 07:56:48;;;;;;;2.13;1.10;;;;;;;;;;5044598;28;20454;-52
2021/08/07 07:59:14;;;;;;;1.13;0.88;;;;;;;;;;5038836;28;20071;-53
2021/08/07 08:01:40;;;;;;;3.40;1.00;;;;;;;;;;5047948;28;20028;-51
2021/08/07 08:04:07;;;;;;;0.93;0.68;;;;;;;;;;5031161;28;20029;-52
2021/08/07 08:06:33;;;;;;;0.95;0.80;;;;;;;;;;5030717;28;20068;-52
2021/08/07 08:08:59;;;;;;;1.10;1.00;;;;;;;;;;5033025;28;20048;-49
2021/08/07 08:11:26;;;;;;;1.55;1.02;;;;;;;;;;5027653;28;20033;-51
2021/08/07 08:13:52;;;;;;;1.08;0.80;;;;;;;;;;5048378;28;20031;-51
2021/08/07 08:16:18;;;;;;;1.65;0.68;;;;;;;;;;5047915;28;20033;-51
2021/08/07 08:18:44;;;;;;;0.60;0.60;;;;;;;;;;5047803;28;20044;-50
2021/08/07 08:21:10;;;;;;;0.85;0.70;;;;;;;;;;5047494;28;20082;-51
2021/08/07 08:23:36;;;;;;;1.52;0.70;;;;;;;;;;5047866;28;20553;-48
2021/08/07 08:26:03;;;;;;;0.60;0.60;;;;;;;;;;5047802;28;20500;-50
2021/08/07 08:28:29;;;;;;;0.60;0.60;;;;;;;;;;5044285;28;20523;-50
2021/08/07 08:30:56;;;;;;;0.88;0.70;;;;;;;;;;5036158;28;20036;-50
2021/08/07 08:33:22;;;;;;;1.30;0.60;;;;;;;;;;5047070;28;20533;-51
2021/08/07 08:35:48;;;;;;;0.55;0.55;;;;;;;;;;5028716;28;20061;-51
2021/08/07 08:38:14;;;;;;;0.50;0.50;;;;;;;;;;5028251;28;20411;-51
2021/08/07 08:40:41;;;;;;;0.52;0.50;;;;;;;;;;5026526;28;20031;-50
2021/08/07 08:43:07;;;;;;;1.27;0.60;;;;;;;;;;5026273;28;20057;-50
2021/08/07 08:45:33;;;;;;;0.98;0.80;;;;;;;;;;5026469;28;20416;-52
2021/08/07 08:48:01;;;;;;;0.90;0.90;;;;;;;;;;5026589;28;20104;-51
2021/08/07 08:50:27;;;;;;;1.48;0.68;;;;;;;;;;5026512;28;20033;-52
2021/08/07 08:52:56;;;;;;;2.83;0.70;;;;;;;;;;5026996;28;20029;-49
2021/08/07 08:55:22;;;;;;;1.05;0.75;;;;;;;;;;5027210;28;20108;-50
2021/08/07 08:57:48;;;;;;;0.85;0.73;;;;;;;;;;5025968;28;20109;-50
2021/08/07 09:00:14;;;;;;;1.00;0.90;;;;;;;;;;5026353;28;20038;-49
2021/08/07 09:02:42;;;;;;;1.00;0.70;;;;;;;;;;5026324;28;20018;-48
2021/08/07 09:05:09;;;;;;;1.48;0.95;;;;;;;;;;5026009;28;20100;-49
2021/08/07 09:07:35;;;;;;;1.42;0.60;;;;;;;;;;5026135;28;20018;-50
2021/08/07 09:10:01;;;;;;;2.35;0.88;;;;;;;;;;5025833;28;20419;-50
2021/08/07 09:12:58;;;;;;;1.40;1.15;;;;;;;;;;5034166;28;20510;-50
2021/08/07 09:15:30;;;;;;;0.80;0.60;;;;;;;;;;5046124;28;20068;-49
2021/08/07 09:18:14;;;;;;;0.98;0.60;;;;;;;;;;5046248;28;20466;-49
2021/08/07 09:20:41;;;;;;;1.15;0.75;;;;;;;;;;5045766;28;20044;-48
2021/08/07 09:23:07;;;;;;;1.27;0.70;;;;;;;;;;5044427;28;20028;-48
2021/08/07 09:25:34;;;;;;;0.70;0.70;;;;;;;;;;5025745;28;20284;-48
2021/08/07 09:28:01;;;;;;;1.63;0.80;;;;;;;;;;5024959;28;20091;-48
2021/08/07 09:30:29;;;;;;;0.85;0.70;;;;;;;;;;5036290;28;20029;-47
2021/08/07 09:32:59;;;;;;;1.42;0.70;;;;;;;;;;5029771;28;20048;-47
2021/08/07 09:35:31;;;;;;;0.82;0.50;;;;;;;;;;5027193;28;20044;-48
2021/08/07 09:38:03;;;;;;;0.73;0.55;;;;;;;;;;5041883;28;20462;-47
2021/08/07 09:40:38;;;;;;;0.75;0.70;;;;;;;;;;5045815;28;20037;-47
2021/08/07 09:43:04;;;;;;;1.85;0.60;;;;;;;;;;5033881;28;20033;-51
2021/08/07 09:45:30;;;;;;;0.88;0.63;;;;;;;;;;5026195;28;20021;-51
2021/08/07 09:48:00;;;;;;;0.55;0.50;;;;;;;;;;5026154;28;20025;-50
2021/08/07 09:50:28;;;;;;;0.93;0.50;;;;;;;;;;5025971;28;20388;-50
2021/08/07 09:52:54;;;;;;;0.95;0.70;;;;;;;;;;5045648;28;20035;-52
2021/08/07 09:55:20;;;;;;;0.95;0.55;;;;;;;;;;5045898;28;20495;-52
2021/08/07 09:57:46;;;;;;;1.73;0.70;;;;;;;;;;5045709;28;20084;-51
2021/08/07 10:00:13;;;;;;;0.50;0.50;;;;;;;;;;5026663;28;20040;-51
2021/08/07 10:02:39;;;;;;;1.35;0.50;;;;;;;;;;5029429;28;20026;-51
2021/08/07 10:05:08;;;;;;;0.80;0.70;;;;;;;;;;5029876;28;20610;-50
2021/08/07 10:07:35;;;;;;;1.00;0.63;;;;;;;;;;5029547;28;20017;-51
2021/08/07 10:10:01;;;;;;;1.02;0.68;;;;;;;;;;5029253;28;20053;-52
2021/08/07 10:12:27;;;;;;;0.68;0.50;;;;;;;;;;5029643;28;20030;-52
2021/08/07 10:14:54;;;;;;;0.65;0.60;;;;;;;;;;5030185;28;20056;-51
2021/08/07 10:17:23;;;;;;;1.58;0.70;;;;;;;;;;5029335;28;20043;-48
2021/08/07 10:19:50;;;;;;;1.05;0.80;;;;;;;;;;5028830;28;20422;-49
2021/08/07 10:22:16;;;;;;;2.10;0.73;;;;;;;;;;5029413;28;20033;-48
2021/08/07 10:24:44;;;;;;;2.08;0.70;;;;;;;;;;5029247;28;20022;-51
2021/08/07 10:27:10;;;;;;;1.63;0.80;;;;;;;;;;5028568;28;20029;-50
2021/08/07 10:29:44;;;;;;;1.45;0.77;;;;;;;;;;5029087;28;20499;-47
2021/08/07 10:32:11;;;;;;;0.50;0.50;;;;;;;;;;5029128;28;20025;-49
2021/08/07 10:34:38;;;;;;;0.80;0.40;;;;;;;;;;5028827;28;20338;-51
2021/08/07 10:37:05;;;;;;;0.88;0.40;;;;;;;;;;5030329;28;20048;-49
2021/08/07 10:39:31;;;;;;;0.55;0.40;;;;;;;;;;5034733;28;20061;-52
2021/08/07 10:41:59;;;;;;;0.30;0.30;;;;;;;;;;5032105;28;20026;-55
2021/08/07 10:44:26;;;;;;;0.30;0.30;;;;;;;;;;5043399;28;20017;-55
2021/08/07 10:46:53;;;;;;;0.47;0.40;;;;;;;;;;5047635;28;20460;-52
2021/08/07 10:49:32;;;;;;;0.55;0.50;;;;;;;;;;5033276;28;20029;-52
2021/08/07 10:51:58;;;;;;;0.43;0.35;;;;;;;;;;5028615;28;20037;-52
2021/08/07 10:54:29;;;;;;;0.30;0.30;;;;;;;;;;5030020;28;20488;-54
2021/08/07 10:56:55;;;;;;;0.38;0.38;;;;;;;;;;5031046;28;20029;-52
2021/08/07 10:59:26;;;;;;;0.73;0.40;;;;;;;;;;5032669;28;20112;-50
2021/08/07 11:01:53;;;;;;;0.77;0.40;;;;;;;;;;5039742;28;20032;-50
2021/08/07 11:04:29;;;;;;;0.47;0.35;;;;;;;;;;5028732;28;20017;-53
2021/08/07 11:07:04;;;;;;;0.30;0.30;;;;;;;;;;5028767;28;20035;-53
2021/08/07 11:09:32;;;;;;;0.30;0.30;;;;;;;;;;5042165;28;20502;-54
2021/08/07 11:12:07;;;;;;;0.28;0.28;;;;;;;;;;5047296;28;20105;-54
2021/08/07 11:14:33;;;;;;;0.30;0.30;;;;;;;;;;5029292;28;20033;-54
2021/08/07 11:17:05;;;;;;;0.30;0.30;;;;;;;;;;5028077;28;20037;-54
2021/08/07 11:19:48;;;;;;;0.30;0.30;;;;;;;;;;5030123;28;20507;-55
2021/08/07 11:22:14;;;;;;;0.32;0.30;;;;;;;;;;5029343;28;20092;-56
2021/08/07 11:24:49;;;;;;;0.30;0.30;;;;;;;;;;5031819;28;20145;-55
2021/08/07 11:27:17;;;;;;;0.40;0.30;;;;;;;;;;5035465;28;20238;-55
2021/08/07 11:30:01;;;;;;;0.38;0.38;;;;;;;;;;5026790;28;20496;-56
2021/08/07 11:32:27;;;;;;;;;;;;;;;;;;5030295;28;20025;-56
2021/08/07 11:34:53;;;;;;;0.68;0.47;;;;;;;;;;5038071;28;19958;-56
2021/08/07 11:37:23;;;;;;;0.25;0.25;;;;;;;;;;5029340;28;20472;-55
2021/08/07 11:40:06;;;;;;;0.50;0.50;;;;;;;;;;5029510;28;20033;-55
2021/08/07 11:42:39;;;;;;;0.47;0.30;;;;;;;;;;5026816;28;20026;-55
2021/08/07 11:45:06;;;;;;;0.30;0.30;;;;;;;;;;5041929;28;20029;-52
2021/08/07 11:47:32;;;;;;;0.20;0.20;;;;;;;;;;5028515;28;20109;-54
2021/08/07 11:49:59;;;;;;;0.32;0.32;;;;;;;;;;5030369;28;20025;-54
2021/08/07 11:52:31;;;;;;;0.30;0.30;;;;;;;;;;5026519;28;20404;-52
2021/08/07 11:54:57;;;;;;;0.30;0.20;;;;;;;;;;5031660;28;20025;-55
2021/08/07 11:57:27;;;;;;;0.30;0.28;;;;;;;;;;5045540;28;20028;-52
2021/08/07 11:59:53;;;;;;;0.40;0.40;;;;;;;;;;5037251;28;20018;-53
2021/08/07 12:02:19;;;;;;;0.30;0.30;;;;;;;;;;5028765;28;20499;-53
2021/08/07 12:04:45;;;;;;;0.28;0.28;;;;;;;;;;5038679;28;20029;-54
2021/08/07 12:07:12;;;;;;;0.20;0.20;;;;;;;;;;5045430;28;20409;-54
2021/08/07 12:09:38;;;;;;;0.22;0.20;;;;;;;;;;5045715;28;20564;-54
2021/08/07 12:12:04;;;;;;;0.32;0.30;;;;;;;;;;5041502;28;20047;-55
2021/08/07 12:14:30;;;;;;;0.30;0.30;;;;;;;;;;5034344;28;20053;-54
2021/08/07 12:17:05;;;;;;;0.32;0.32;;;;;;;;;;5046750;28;20074;-53
2021/08/07 12:19:31;;;;;;;0.32;0.32;;;;;;;;;;5027196;28;20025;-53
2021/08/07 12:22:04;;;;;;;0.70;0.60;;;;;;;;;;5040927;28;20066;-54
2021/08/07 12:24:30;;;;;;;0.50;0.50;;;;;;;;;;5039470;28;20025;-54
2021/08/07 12:26:57;;;;;;;0.57;0.40;;;;;;;;;;5037601;28;20526;-55
2021/08/07 12:29:23;;;;;;;0.40;0.35;;;;;;;;;;5026399;28;20029;-55
2021/08/07 12:31:50;;;;;;;0.52;0.30;;;;;;;;;;5025090;28;20477;-55
2021/08/07 12:34:22;;;;;;;0.60;0.35;;;;;;;;;;5027303;28;20499;-55
2021/08/07 12:37:16;;;;;;;0.22;0.22;;;;;;;;;;5062957;28;20032;-55
2021/08/07 12:39:48;;;;;;;0.43;0.23;;;;;;;;;;5024843;28;20057;-55
2021/08/07 12:42:15;;;;;;;0.40;0.40;;;;;;;;;;5024775;28;20871;-56
2021/08/07 12:44:42;;;;;;;0.30;0.30;;;;;;;;;;5026936;28;20075;-55
2021/08/07 12:47:08;;;;;;;0.30;0.30;;;;;;;;;;5027929;28;20095;-56
2021/08/07 12:49:38;;;;;;;0.30;0.30;;;;;;;;;;5046506;28;20029;-56
2021/08/07 12:52:05;;;;;;;0.30;0.30;;;;;;;;;;5028187;28;20514;-56
2021/08/07 12:54:32;;;;;;;0.30;0.30;;;;;;;;;;5026103;28;20041;-56
2021/08/07 12:56:58;;;;;;;0.30;0.30;;;;;;;;;;5026618;28;20032;-56
2021/08/07 12:59:24;;;;;;;0.50;0.30;;;;;;;;;;5027479;28;20037;-55
2021/08/07 13:01:59;;;;;;;0.40;0.40;;;;;;;;;;5031476;28;20499;-56
2021/08/07 13:04:39;;;;;;;0.30;0.30;;;;;;;;;;5041248;28;20495;-56
2021/08/07 13:07:06;;;;;;;0.52;0.50;;;;;;;;;;5034060;28;20029;-56
2021/08/07 13:09:33;;;;;;;0.40;0.40;;;;;;;;;;5026856;28;20026;-54
2021/08/07 13:12:02;;;;;;;0.30;0.30;;;;;;;;;;5025002;28;20041;-54
2021/08/07 13:14:28;;;;;;;0.98;0.45;;;;;;;;;;5025239;28;20045;-55
2021/08/07 13:16:55;;;;;;;0.30;0.30;;;;;;;;;;5036737;28;20407;-54
2021/08/07 13:19:23;;;;;;;0.50;0.50;;;;;;;;;;5035815;28;20037;-54
2021/08/07 13:21:50;;;;;;;0.40;0.40;;;;;;;;;;5034183;28;20463;-54
2021/08/07 13:24:25;;;;;;;0.40;0.38;;;;;;;;;;5024482;28;20036;-55
2021/08/07 13:26:51;;;;;;;0.55;0.30;;;;;;;;;;5042478;28;20025;-55
2021/08/07 13:29:19;;;;;;;0.40;0.40;;;;;;;;;;5044972;28;20048;-55
2021/08/07 13:31:46;;;;;;;0.30;0.30;;;;;;;;;;5035461;28;20044;-55
2021/08/07 13:34:12;;;;;;;0.32;0.32;;;;;;;;;;5032124;28;20033;-55
2021/08/07 13:36:39;;;;;;;0.30;0.30;;;;;;;;;;5028083;28;20033;-55
2021/08/07 13:39:05;;;;;;;1.67;0.30;;;;;;;;;;5039904;28;20099;-55
2021/08/07 13:41:31;;;;;;;0.30;0.30;;;;;;;;;;5035076;28;20033;-56
2021/08/07 13:43:58;;;;;;;0.35;0.35;;;;;;;;;;5026969;28;20022;-56
2021/08/07 13:46:24;;;;;;;0.47;0.40;;;;;;;;;;5027988;28;20021;-55
2021/08/07 13:48:51;;;;;;;0.45;0.40;;;;;;;;;;5041105;28;20028;-55
2021/08/07 13:51:17;;;;;;;0.40;0.40;;;;;;;;;;5047501;28;20031;-56
2021/08/07 13:53:43;;;;;;;0.30;0.30;;;;;;;;;;5042230;28;20029;-56
2021/08/07 13:56:09;;;;;;;0.35;0.30;;;;;;;;;;5027853;28;20136;-56
2021/08/07 13:58:35;;;;;;;0.40;0.40;;;;;;;;;;5045096;28;20503;-56
2021/08/07 14:01:01;;;;;;;0.50;0.40;;;;;;;;;;5032138;28;20026;-56
2021/08/07 14:03:27;;;;;;;0.40;0.38;;;;;;;;;;5028274;28;20026;-57
2021/08/07 14:05:53;;;;;;;0.30;0.30;;;;;;;;;;5047489;28;20399;-56
2021/08/07 14:08:19;;;;;;;0.40;0.35;;;;;;;;;;5048343;28;20040;-56
2021/08/07 14:10:46;;;;;;;0.45;0.40;;;;;;;;;;5032918;28;20128;-56
2021/08/07 14:13:12;;;;;;;0.55;0.30;;;;;;;;;;5028274;28;20033;-56
2021/08/07 14:15:38;;;;;;;0.40;0.30;;;;;;;;;;5035936;28;20029;-57
2021/08/07 14:18:04;;;;;;;0.47;0.40;;;;;;;;;;5034671;28;20119;-56
2021/08/07 14:20:33;;;;;;;0.20;0.20;;;;;;;;;;5043059;28;20033;-57
2021/08/07 14:23:00;;;;;;;0.30;0.30;;;;;;;;;;5036101;28;20029;-57
2021/08/07 14:25:26;;;;;;;0.38;0.30;;;;;;;;;;5030804;28;20026;-56
2021/08/07 14:27:53;;;;;;;0.28;0.28;;;;;;;;;;5046523;28;20077;-57
2021/08/07 14:30:19;;;;;;;0.30;0.30;;;;;;;;;;5046467;28;20064;-56
2021/08/07 14:32:45;;;;;;;0.30;0.30;;;;;;;;;;5034710;28;20056;-57
2021/08/07 14:35:11;;;;;;;0.75;0.22;;;;;;;;;;5035907;28;20105;-57
2021/08/07 14:37:37;;;;;;;0.20;0.20;;;;;;;;;;5029020;28;20078;-56
2021/08/07 14:40:04;;;;;;;0.30;0.30;;;;;;;;;;5045765;28;20579;-57
2021/08/07 14:42:30;;;;;;;0.30;0.30;;;;;;;;;;5034020;28;20597;-57
2021/08/07 14:44:56;;;;;;;0.47;0.20;;;;;;;;;;5029308;28;20486;-57